sensor_id;sensor_type;location;lat;lon;timestamp;temperature;humidity
8220;DHT22;4151;51.110;7.020;2023-05-02T00:00:13;9.50;99.90
8220;DHT22;4151;51.110;7.020;2023-05-02T00:02:38;9.50;99.90
8220;DHT22;4151;51.110;7.020;2023-05-02T00:05:05;9.40;99.90
8220;DHT22;4151;51.110;7.020;2023-05-02T00:07:31;9.30;99.90
8220;DHT22;4151;51.110;7.020;2023-05-02T00:09:57;9.30;99.90
8220;DHT22;4151;51.110;7.020;2023-05-02T00:12:23;9.20;99.90
8220;DHT22;4151;51.110;7.020;2023-05-02T00:14:49;9.20;99.90
8220;DHT22;4151;51.110;7.020;2023-05-02T00:17:19;9.10;99.90
8220;DHT22;4151;51.110;7.020;2023-05-02T00:19:45;9.10;99.90
8220;DHT22;4151;51.110;7.020;2023-05-02T00:22:10;9.00;99.90
8220;DHT22;4151;51.110;7.020;2023-05-02T00:24:36;9.00;99.90
8220;DHT22;4151;51.110;7.020;2023-05-02T00:27:01;8.90;99.90
8220;DHT22;4151;51.110;7.020;2023-05-02T00:29:27;8.90;99.90
8220;DHT22;4151;51.110;7.020;2023-05-02T00:31:53;8.80;99.90
8220;DHT22;4151;51.110;7.020;2023-05-02T00:34:18;8.90;99.90
8220;DHT22;4151;51.110;7.020;2023-05-02T00:36:44;8.80;99.90
8220;DHT22;4151;51.110;7.020;2023-05-02T00:39:10;8.70;99.90
8220;DHT22;4151;51.110;7.020;2023-05-02T00:41:35;8.70;99.90
8220;DHT22;4151;51.110;7.020;2023-05-02T00:44:01;8.70;99.90
8220;DHT22;4151;51.110;7.020;2023-05-02T00:46:27;8.70;99.90
8220;DHT22;4151;51.110;7.020;2023-05-02T00:48:52;8.70;99.90
8220;DHT22;4151;51.110;7.020;2023-05-02T00:51:18;8.70;99.90
8220;DHT22;4151;51.110;7.020;2023-05-02T00:53:44;8.70;99.90
8220;DHT22;4151;51.110;7.020;2023-05-02T00:56:10;8.80;99.90
8220;DHT22;4151;51.110;7.020;2023-05-02T00:58:37;8.90;99.90
8220;DHT22;4151;51.110;7.020;2023-05-02T01:09:25;9.30;99.90
8220;DHT22;4151;51.110;7.020;2023-05-02T01:12:14;9.30;99.90
8220;DHT22;4151;51.110;7.020;2023-05-02T01:14:42;9.40;99.90
8220;DHT22;4151;51.110;7.020;2023-05-02T01:17:11;9.40;99.90
8220;DHT22;4151;51.110;7.020;2023-05-02T01:19:42;9.40;99.90
8220;DHT22;4151;51.110;7.020;2023-05-02T01:22:10;9.40;99.90
8220;DHT22;4151;51.110;7.020;2023-05-02T01:27:33;9.30;99.90
8220;DHT22;4151;51.110;7.020;2023-05-02T01:30:02;9.30;99.90
8220;DHT22;4151;51.110;7.020;2023-05-02T01:32:30;9.20;99.90
8220;DHT22;4151;51.110;7.020;2023-05-02T01:34:59;9.20;99.90
8220;DHT22;4151;51.110;7.020;2023-05-02T01:37:28;9.20;99.90
8220;DHT22;4151;51.110;7.020;2023-05-02T01:39:55;9.20;99.90
8220;DHT22;4151;51.110;7.020;2023-05-02T01:42:22;9.30;99.90
8220;DHT22;4151;51.110;7.020;2023-05-02T01:44:50;9.30;99.90
8220;DHT22;4151;51.110;7.020;2023-05-02T01:47:16;9.40;99.90
8220;DHT22;4151;51.110;7.020;2023-05-02T01:49:43;9.50;99.90
8220;DHT22;4151;51.110;7.020;2023-05-02T01:52:11;9.50;99.90
8220;DHT22;4151;51.110;7.020;2023-05-02T01:54:37;9.50;99.90
8220;DHT22;4151;51.110;7.020;2023-05-02T01:57:06;9.60;99.90
8220;DHT22;4151;51.110;7.020;2023-05-02T01:59:33;9.60;99.90
8220;DHT22;4151;51.110;7.020;2023-05-02T02:02:00;9.70;99.90
8220;DHT22;4151;51.110;7.020;2023-05-02T02:04:27;9.70;99.90
8220;DHT22;4151;51.110;7.020;2023-05-02T02:07:08;9.70;99.90
8220;DHT22;4151;51.110;7.020;2023-05-02T02:09:34;9.70;99.90
8220;DHT22;4151;51.110;7.020;2023-05-02T02:12:11;9.70;99.90
8220;DHT22;4151;51.110;7.020;2023-05-02T02:14:38;9.80;99.90
8220;DHT22;4151;51.110;7.020;2023-05-02T02:17:23;9.80;99.90
8220;DHT22;4151;51.110;7.020;2023-05-02T02:19:52;9.80;99.90
8220;DHT22;4151;51.110;7.020;2023-05-02T02:22:20;9.90;99.90
8220;DHT22;4151;51.110;7.020;2023-05-02T02:24:47;9.90;99.90
8220;DHT22;4151;51.110;7.020;2023-05-02T02:27:13;9.90;99.90
8220;DHT22;4151;51.110;7.020;2023-05-02T02:29:39;10.00;99.90
8220;DHT22;4151;51.110;7.020;2023-05-02T02:32:05;10.00;99.90
8220;DHT22;4151;51.110;7.020;2023-05-02T02:34:30;10.00;99.90
8220;DHT22;4151;51.110;7.020;2023-05-02T02:37:01;10.00;99.90
8220;DHT22;4151;51.110;7.020;2023-05-02T02:39:47;10.00;99.90
8220;DHT22;4151;51.110;7.020;2023-05-02T02:42:18;10.00;99.90
8220;DHT22;4151;51.110;7.020;2023-05-02T02:45:08;10.10;99.90
8220;DHT22;4151;51.110;7.020;2023-05-02T02:47:44;10.20;99.90
8220;DHT22;4151;51.110;7.020;2023-05-02T02:50:15;10.10;99.90
8220;DHT22;4151;51.110;7.020;2023-05-02T03:00:51;10.20;99.90
8220;DHT22;4151;51.110;7.020;2023-05-02T03:03:19;10.20;99.90
8220;DHT22;4151;51.110;7.020;2023-05-02T03:05:47;10.30;99.90
8220;DHT22;4151;51.110;7.020;2023-05-02T03:08:13;10.30;99.90
8220;DHT22;4151;51.110;7.020;2023-05-02T03:10:38;10.30;99.90
8220;DHT22;4151;51.110;7.020;2023-05-02T03:13:04;10.30;99.90
8220;DHT22;4151;51.110;7.020;2023-05-02T03:16:28;10.40;99.90
8220;DHT22;4151;51.110;7.020;2023-05-02T03:18:34;10.40;99.90
8220;DHT22;4151;51.110;7.020;2023-05-02T03:21:00;10.40;99.90
8220;DHT22;4151;51.110;7.020;2023-05-02T03:23:26;10.40;99.90
8220;DHT22;4151;51.110;7.020;2023-05-02T03:25:51;10.40;99.90
8220;DHT22;4151;51.110;7.020;2023-05-02T03:28:17;10.40;99.90
8220;DHT22;4151;51.110;7.020;2023-05-02T03:30:42;10.40;99.90
8220;DHT22;4151;51.110;7.020;2023-05-02T03:33:08;10.40;99.90
8220;DHT22;4151;51.110;7.020;2023-05-02T03:35:33;10.40;99.90
8220;DHT22;4151;51.110;7.020;2023-05-02T03:37:59;10.50;99.90
8220;DHT22;4151;51.110;7.020;2023-05-02T03:40:26;10.50;99.90
8220;DHT22;4151;51.110;7.020;2023-05-02T03:42:52;10.50;99.90
8220;DHT22;4151;51.110;7.020;2023-05-02T03:45:17;10.50;99.90
8220;DHT22;4151;51.110;7.020;2023-05-02T03:47:43;10.50;99.90
8220;DHT22;4151;51.110;7.020;2023-05-02T03:50:09;10.50;99.90
8220;DHT22;4151;51.110;7.020;2023-05-02T03:52:34;10.40;99.90
8220;DHT22;4151;51.110;7.020;2023-05-02T03:55:00;10.40;99.90
8220;DHT22;4151;51.110;7.020;2023-05-02T03:57:29;10.50;99.90
8220;DHT22;4151;51.110;7.020;2023-05-02T03:59:54;10.50;99.90
8220;DHT22;4151;51.110;7.020;2023-05-02T04:02:20;10.40;99.90
8220;DHT22;4151;51.110;7.020;2023-05-02T04:04:45;10.40;99.90
8220;DHT22;4151;51.110;7.020;2023-05-02T04:07:11;10.50;99.90
8220;DHT22;4151;51.110;7.020;2023-05-02T04:09:42;10.50;99.90
8220;DHT22;4151;51.110;7.020;2023-05-02T04:12:08;10.60;99.90
8220;DHT22;4151;51.110;7.020;2023-05-02T04:14:34;10.60;99.90
8220;DHT22;4151;51.110;7.020;2023-05-02T04:16:59;10.50;99.90
8220;DHT22;4151;51.110;7.020;2023-05-02T04:19:25;10.60;99.90
8220;DHT22;4151;51.110;7.020;2023-05-02T04:21:50;10.60;99.90
8220;DHT22;4151;51.110;7.020;2023-05-02T04:24:16;10.60;99.90
8220;DHT22;4151;51.110;7.020;2023-05-02T04:26:42;10.60;99.90
8220;DHT22;4151;51.110;7.020;2023-05-02T04:29:07;10.60;99.90
8220;DHT22;4151;51.110;7.020;2023-05-02T04:31:33;10.50;99.90
8220;DHT22;4151;51.110;7.020;2023-05-02T04:33:59;10.60;99.90
8220;DHT22;4151;51.110;7.020;2023-05-02T04:36:24;10.60;99.90
8220;DHT22;4151;51.110;7.020;2023-05-02T04:38:52;10.60;99.90
8220;DHT22;4151;51.110;7.020;2023-05-02T04:41:18;10.60;99.90
8220;DHT22;4151;51.110;7.020;2023-05-02T04:52:35;10.70;99.90
8220;DHT22;4151;51.110;7.020;2023-05-02T04:55:01;10.70;99.90
8220;DHT22;4151;51.110;7.020;2023-05-02T04:57:26;10.70;99.90
8220;DHT22;4151;51.110;7.020;2023-05-02T04:59:52;10.80;99.90
8220;DHT22;4151;51.110;7.020;2023-05-02T05:02:17;10.80;99.90
8220;DHT22;4151;51.110;7.020;2023-05-02T05:04:43;10.70;99.90
8220;DHT22;4151;51.110;7.020;2023-05-02T05:07:10;10.70;99.90
8220;DHT22;4151;51.110;7.020;2023-05-02T05:09:35;10.70;99.90
8220;DHT22;4151;51.110;7.020;2023-05-02T05:12:01;10.60;99.90
8220;DHT22;4151;51.110;7.020;2023-05-02T05:14:27;10.70;99.90
8220;DHT22;4151;51.110;7.020;2023-05-02T05:16:53;10.70;99.90
8220;DHT22;4151;51.110;7.020;2023-05-02T05:19:18;10.70;99.90
8220;DHT22;4151;51.110;7.020;2023-05-02T05:21:44;10.70;99.90
8220;DHT22;4151;51.110;7.020;2023-05-02T05:24:09;10.70;99.90
8220;DHT22;4151;51.110;7.020;2023-05-02T05:26:35;10.80;99.90
8220;DHT22;4151;51.110;7.020;2023-05-02T05:29:01;10.70;99.90
8220;DHT22;4151;51.110;7.020;2023-05-02T05:31:27;10.80;99.90
8220;DHT22;4151;51.110;7.020;2023-05-02T05:33:52;10.80;99.90
8220;DHT22;4151;51.110;7.020;2023-05-02T05:36:18;10.80;99.90
8220;DHT22;4151;51.110;7.020;2023-05-02T05:38:44;10.80;99.90
8220;DHT22;4151;51.110;7.020;2023-05-02T05:41:10;10.80;99.90
8220;DHT22;4151;51.110;7.020;2023-05-02T05:43:36;10.70;99.90
8220;DHT22;4151;51.110;7.020;2023-05-02T05:46:02;10.60;99.90
8220;DHT22;4151;51.110;7.020;2023-05-02T05:48:27;10.60;99.90
8220;DHT22;4151;51.110;7.020;2023-05-02T05:50:53;10.70;99.90
8220;DHT22;4151;51.110;7.020;2023-05-02T05:53:19;10.60;99.90
8220;DHT22;4151;51.110;7.020;2023-05-02T05:55:45;10.60;99.90
8220;DHT22;4151;51.110;7.020;2023-05-02T05:58:11;10.60;99.90
8220;DHT22;4151;51.110;7.020;2023-05-02T06:00:37;10.60;99.90
8220;DHT22;4151;51.110;7.020;2023-05-02T06:03:03;10.60;99.90
8220;DHT22;4151;51.110;7.020;2023-05-02T06:05:29;10.60;99.90
8220;DHT22;4151;51.110;7.020;2023-05-02T06:07:56;10.70;99.90
8220;DHT22;4151;51.110;7.020;2023-05-02T06:10:22;10.70;99.90
8220;DHT22;4151;51.110;7.020;2023-05-02T06:12:47;10.50;99.90
8220;DHT22;4151;51.110;7.020;2023-05-02T06:15:13;10.50;99.90
8220;DHT22;4151;51.110;7.020;2023-05-02T06:17:38;10.50;99.90
8220;DHT22;4151;51.110;7.020;2023-05-02T06:20:05;10.50;99.90
8220;DHT22;4151;51.110;7.020;2023-05-02T06:22:31;10.60;99.90
8220;DHT22;4151;51.110;7.020;2023-05-02T06:24:56;10.50;99.90
8220;DHT22;4151;51.110;7.020;2023-05-02T06:27:22;10.50;99.90
8220;DHT22;4151;51.110;7.020;2023-05-02T06:29:50;10.40;99.90
8220;DHT22;4151;51.110;7.020;2023-05-02T06:32:16;10.40;99.90
8220;DHT22;4151;51.110;7.020;2023-05-02T06:34:41;10.50;99.90
8220;DHT22;4151;51.110;7.020;2023-05-02T06:37:07;10.50;99.90
8220;DHT22;4151;51.110;7.020;2023-05-02T06:39:32;10.60;99.90
8220;DHT22;4151;51.110;7.020;2023-05-02T06:41:58;10.60;99.90
8220;DHT22;4151;51.110;7.020;2023-05-02T06:44:24;10.60;99.90
8220;DHT22;4151;51.110;7.020;2023-05-02T06:46:50;10.60;99.90
8220;DHT22;4151;51.110;7.020;2023-05-02T06:49:16;10.60;99.90
8220;DHT22;4151;51.110;7.020;2023-05-02T06:51:41;10.60;99.90
8220;DHT22;4151;51.110;7.020;2023-05-02T06:54:07;10.70;99.90
8220;DHT22;4151;51.110;7.020;2023-05-02T06:56:33;10.70;99.90
8220;DHT22;4151;51.110;7.020;2023-05-02T06:58:59;10.70;99.90
8220;DHT22;4151;51.110;7.020;2023-05-02T07:01:25;10.50;99.90
8220;DHT22;4151;51.110;7.020;2023-05-02T07:03:50;10.30;99.90
8220;DHT22;4151;51.110;7.020;2023-05-02T07:06:16;10.20;99.90
8220;DHT22;4151;51.110;7.020;2023-05-02T07:08:42;10.20;99.90
8220;DHT22;4151;51.110;7.020;2023-05-02T07:11:07;10.10;99.90
8220;DHT22;4151;51.110;7.020;2023-05-02T07:13:33;10.10;99.90
8220;DHT22;4151;51.110;7.020;2023-05-02T07:15:59;10.20;99.90
8220;DHT22;4151;51.110;7.020;2023-05-02T07:18:24;10.30;99.90
8220;DHT22;4151;51.110;7.020;2023-05-02T07:20:50;10.40;99.90
8220;DHT22;4151;51.110;7.020;2023-05-02T07:23:16;10.40;99.90
8220;DHT22;4151;51.110;7.020;2023-05-02T07:25:41;10.50;99.90
8220;DHT22;4151;51.110;7.020;2023-05-02T07:28:07;10.70;99.90
8220;DHT22;4151;51.110;7.020;2023-05-02T07:30:33;10.70;99.90
8220;DHT22;4151;51.110;7.020;2023-05-02T07:32:58;10.80;99.90
8220;DHT22;4151;51.110;7.020;2023-05-02T07:35:24;11.00;99.90
8220;DHT22;4151;51.110;7.020;2023-05-02T07:37:49;11.20;99.90
8220;DHT22;4151;51.110;7.020;2023-05-02T07:40:15;11.40;99.90
8220;DHT22;4151;51.110;7.020;2023-05-02T07:42:41;11.50;99.90
8220;DHT22;4151;51.110;7.020;2023-05-02T07:45:07;11.60;99.90
8220;DHT22;4151;51.110;7.020;2023-05-02T07:47:33;11.80;99.90
8220;DHT22;4151;51.110;7.020;2023-05-02T07:49:59;11.90;99.90
8220;DHT22;4151;51.110;7.020;2023-05-02T07:52:25;11.80;99.90
8220;DHT22;4151;51.110;7.020;2023-05-02T07:54:51;11.80;99.90
8220;DHT22;4151;51.110;7.020;2023-05-02T07:57:17;11.80;99.90
8220;DHT22;4151;51.110;7.020;2023-05-02T07:59:43;11.70;99.90
8220;DHT22;4151;51.110;7.020;2023-05-02T08:02:08;11.60;99.90
8220;DHT22;4151;51.110;7.020;2023-05-02T08:04:35;11.60;99.90
8220;DHT22;4151;51.110;7.020;2023-05-02T08:07:00;11.60;99.90
8220;DHT22;4151;51.110;7.020;2023-05-02T08:09:26;11.60;99.90
8220;DHT22;4151;51.110;7.020;2023-05-02T08:11:51;11.60;99.90
8220;DHT22;4151;51.110;7.020;2023-05-02T08:14:17;11.70;99.90
8220;DHT22;4151;51.110;7.020;2023-05-02T08:16:43;12.10;99.90
8220;DHT22;4151;51.110;7.020;2023-05-02T08:19:09;12.40;99.90
8220;DHT22;4151;51.110;7.020;2023-05-02T08:21:35;12.40;99.90
8220;DHT22;4151;51.110;7.020;2023-05-02T08:24:01;12.40;99.90
8220;DHT22;4151;51.110;7.020;2023-05-02T08:26:27;12.50;99.90
8220;DHT22;4151;51.110;7.020;2023-05-02T08:28:53;12.40;99.90
8220;DHT22;4151;51.110;7.020;2023-05-02T08:31:20;12.30;99.90
8220;DHT22;4151;51.110;7.020;2023-05-02T08:33:46;12.10;99.90
8220;DHT22;4151;51.110;7.020;2023-05-02T08:36:12;11.80;99.90
8220;DHT22;4151;51.110;7.020;2023-05-02T08:38:38;11.50;99.90
8220;DHT22;4151;51.110;7.020;2023-05-02T08:41:30;11.30;99.90
8220;DHT22;4151;51.110;7.020;2023-05-02T08:43:56;11.00;99.90
8220;DHT22;4151;51.110;7.020;2023-05-02T08:46:22;10.80;99.90
8220;DHT22;4151;51.110;7.020;2023-05-02T08:48:49;10.70;99.90
8220;DHT22;4151;51.110;7.020;2023-05-02T08:51:16;10.70;99.90
8220;DHT22;4151;51.110;7.020;2023-05-02T08:53:42;10.70;99.90
8220;DHT22;4151;51.110;7.020;2023-05-02T08:56:09;10.70;99.90
8220;DHT22;4151;51.110;7.020;2023-05-02T08:58:37;10.70;99.90
8220;DHT22;4151;51.110;7.020;2023-05-02T09:01:14;10.80;99.90
8220;DHT22;4151;51.110;7.020;2023-05-02T09:03:42;10.80;99.90
8220;DHT22;4151;51.110;7.020;2023-05-02T09:06:16;10.80;99.90
8220;DHT22;4151;51.110;7.020;2023-05-02T09:08:44;10.80;99.90
8220;DHT22;4151;51.110;7.020;2023-05-02T09:11:11;10.90;99.90
8220;DHT22;4151;51.110;7.020;2023-05-02T09:13:42;10.90;99.90
8220;DHT22;4151;51.110;7.020;2023-05-02T09:16:13;11.00;99.90
8220;DHT22;4151;51.110;7.020;2023-05-02T09:18:44;11.10;99.90
8220;DHT22;4151;51.110;7.020;2023-05-02T09:21:21;11.20;99.90
8220;DHT22;4151;51.110;7.020;2023-05-02T09:23:49;11.40;99.90
8220;DHT22;4151;51.110;7.020;2023-05-02T09:26:23;11.50;99.90
8220;DHT22;4151;51.110;7.020;2023-05-02T09:28:52;11.60;99.90
8220;DHT22;4151;51.110;7.020;2023-05-02T09:31:19;11.80;99.90
8220;DHT22;4151;51.110;7.020;2023-05-02T09:33:46;12.00;99.90
8220;DHT22;4151;51.110;7.020;2023-05-02T09:36:16;12.20;99.90
8220;DHT22;4151;51.110;7.020;2023-05-02T09:38:44;12.30;99.90
8220;DHT22;4151;51.110;7.020;2023-05-02T09:41:10;12.40;99.90
8220;DHT22;4151;51.110;7.020;2023-05-02T09:43:36;12.40;99.90
8220;DHT22;4151;51.110;7.020;2023-05-02T09:46:04;12.70;99.90
8220;DHT22;4151;51.110;7.020;2023-05-02T09:48:30;13.00;99.90
8220;DHT22;4151;51.110;7.020;2023-05-02T09:50:56;13.10;99.90
8220;DHT22;4151;51.110;7.020;2023-05-02T09:53:26;13.20;99.90
8220;DHT22;4151;51.110;7.020;2023-05-02T09:56:02;13.50;99.90
8220;DHT22;4151;51.110;7.020;2023-05-02T09:58:28;13.80;99.90
8220;DHT22;4151;51.110;7.020;2023-05-02T10:00:56;13.80;99.90
8220;DHT22;4151;51.110;7.020;2023-05-02T10:03:24;13.30;99.90
8220;DHT22;4151;51.110;7.020;2023-05-02T10:05:50;13.20;99.90
8220;DHT22;4151;51.110;7.020;2023-05-02T10:08:19;13.10;99.90
8220;DHT22;4151;51.110;7.020;2023-05-02T10:10:49;13.00;99.90
8220;DHT22;4151;51.110;7.020;2023-05-02T10:13:16;13.20;99.90
8220;DHT22;4151;51.110;7.020;2023-05-02T10:15:44;13.50;99.90
8220;DHT22;4151;51.110;7.020;2023-05-02T10:18:16;14.50;99.90
8220;DHT22;4151;51.110;7.020;2023-05-02T10:20:51;15.10;99.90
8220;DHT22;4151;51.110;7.020;2023-05-02T10:23:20;15.30;99.90
8220;DHT22;4151;51.110;7.020;2023-05-02T10:25:46;15.80;99.90
8220;DHT22;4151;51.110;7.020;2023-05-02T10:28:13;16.10;99.90
8220;DHT22;4151;51.110;7.020;2023-05-02T10:30:39;16.60;99.90
8220;DHT22;4151;51.110;7.020;2023-05-02T10:33:05;16.40;99.90
8220;DHT22;4151;51.110;7.020;2023-05-02T10:35:31;16.40;99.90
8220;DHT22;4151;51.110;7.020;2023-05-02T10:37:57;15.80;99.90
8220;DHT22;4151;51.110;7.020;2023-05-02T10:40:24;15.80;99.90
8220;DHT22;4151;51.110;7.020;2023-05-02T10:42:50;15.50;99.90
8220;DHT22;4151;51.110;7.020;2023-05-02T10:45:34;14.90;99.90
8220;DHT22;4151;51.110;7.020;2023-05-02T10:48:18;14.90;99.90
8220;DHT22;4151;51.110;7.020;2023-05-02T10:50:46;15.00;99.90
8220;DHT22;4151;51.110;7.020;2023-05-02T10:53:33;15.20;99.90
8220;DHT22;4151;51.110;7.020;2023-05-02T10:58:42;15.10;99.90
8220;DHT22;4151;51.110;7.020;2023-05-02T11:01:31;14.90;99.90
8220;DHT22;4151;51.110;7.020;2023-05-02T11:03:59;14.40;99.90
8220;DHT22;4151;51.110;7.020;2023-05-02T11:06:26;14.20;99.90
8220;DHT22;4151;51.110;7.020;2023-05-02T11:08:52;14.20;99.90
8220;DHT22;4151;51.110;7.020;2023-05-02T11:11:43;13.90;99.90
8220;DHT22;4151;51.110;7.020;2023-05-02T11:14:10;14.10;99.90
8220;DHT22;4151;51.110;7.020;2023-05-02T11:24:50;18.60;99.90
8220;DHT22;4151;51.110;7.020;2023-05-02T11:35:20;18.50;99.90
8220;DHT22;4151;51.110;7.020;2023-05-02T11:38:13;17.80;99.90
8220;DHT22;4151;51.110;7.020;2023-05-02T11:40:39;16.90;99.90
8220;DHT22;4151;51.110;7.020;2023-05-02T11:52:14;15.80;99.90
8220;DHT22;4151;51.110;7.020;2023-05-02T11:54:40;15.40;99.90
8220;DHT22;4151;51.110;7.020;2023-05-02T11:57:06;15.30;99.90
8220;DHT22;4151;51.110;7.020;2023-05-02T11:59:51;15.30;99.90
8220;DHT22;4151;51.110;7.020;2023-05-02T12:02:17;15.30;99.90
8220;DHT22;4151;51.110;7.020;2023-05-02T12:04:43;15.30;99.90
8220;DHT22;4151;51.110;7.020;2023-05-02T12:07:09;15.30;99.90
8220;DHT22;4151;51.110;7.020;2023-05-02T12:09:35;15.70;99.90
8220;DHT22;4151;51.110;7.020;2023-05-02T12:12:00;16.40;99.90
8220;DHT22;4151;51.110;7.020;2023-05-02T12:14:31;16.50;99.90
8220;DHT22;4151;51.110;7.020;2023-05-02T12:17:02;17.20;99.90
8220;DHT22;4151;51.110;7.020;2023-05-02T12:19:28;17.80;99.90
8220;DHT22;4151;51.110;7.020;2023-05-02T12:21:54;18.10;99.90
8220;DHT22;4151;51.110;7.020;2023-05-02T12:24:20;18.30;99.90
8220;DHT22;4151;51.110;7.020;2023-05-02T12:26:45;18.20;99.90
8220;DHT22;4151;51.110;7.020;2023-05-02T12:29:11;18.60;99.90
8220;DHT22;4151;51.110;7.020;2023-05-02T12:31:37;19.30;99.90
8220;DHT22;4151;51.110;7.020;2023-05-02T12:34:02;19.20;99.90
8220;DHT22;4151;51.110;7.020;2023-05-02T12:36:28;20.40;99.90
8220;DHT22;4151;51.110;7.020;2023-05-02T12:38:56;20.00;99.90
8220;DHT22;4151;51.110;7.020;2023-05-02T12:41:37;19.90;99.90
8220;DHT22;4151;51.110;7.020;2023-05-02T12:44:04;19.40;99.90
8220;DHT22;4151;51.110;7.020;2023-05-02T12:46:30;18.90;99.90
8220;DHT22;4151;51.110;7.020;2023-05-02T12:49:03;18.50;99.90
8220;DHT22;4151;51.110;7.020;2023-05-02T12:51:29;18.00;99.90
8220;DHT22;4151;51.110;7.020;2023-05-02T12:53:57;17.70;99.90
8220;DHT22;4151;51.110;7.020;2023-05-02T12:56:22;17.70;99.90
8220;DHT22;4151;51.110;7.020;2023-05-02T12:58:49;17.40;99.90
8220;DHT22;4151;51.110;7.020;2023-05-02T13:01:15;17.30;99.90
8220;DHT22;4151;51.110;7.020;2023-05-02T13:03:41;17.00;99.90
8220;DHT22;4151;51.110;7.020;2023-05-02T13:06:07;17.40;99.90
8220;DHT22;4151;51.110;7.020;2023-05-02T13:08:34;17.30;99.90
8220;DHT22;4151;51.110;7.020;2023-05-02T13:11:03;16.70;99.90
8220;DHT22;4151;51.110;7.020;2023-05-02T13:13:29;16.50;99.90
8220;DHT22;4151;51.110;7.020;2023-05-02T13:15:55;16.40;99.90
8220;DHT22;4151;51.110;7.020;2023-05-02T13:18:21;16.30;99.90
8220;DHT22;4151;51.110;7.020;2023-05-02T13:20:46;16.90;99.90
8220;DHT22;4151;51.110;7.020;2023-05-02T13:23:12;17.40;99.90
8220;DHT22;4151;51.110;7.020;2023-05-02T13:25:38;17.20;99.90
8220;DHT22;4151;51.110;7.020;2023-05-02T13:28:03;17.50;99.90
8220;DHT22;4151;51.110;7.020;2023-05-02T13:30:29;17.80;99.90
8220;DHT22;4151;51.110;7.020;2023-05-02T13:32:54;18.60;99.90
8220;DHT22;4151;51.110;7.020;2023-05-02T13:35:22;19.50;99.90
8220;DHT22;4151;51.110;7.020;2023-05-02T13:37:49;20.20;99.90
8220;DHT22;4151;51.110;7.020;2023-05-02T13:40:15;20.20;99.90
8220;DHT22;4151;51.110;7.020;2023-05-02T13:42:40;19.90;99.90
8220;DHT22;4151;51.110;7.020;2023-05-02T13:45:07;19.90;99.90
8220;DHT22;4151;51.110;7.020;2023-05-02T13:47:32;19.80;99.90
8220;DHT22;4151;51.110;7.020;2023-05-02T13:49:58;20.50;99.90
8220;DHT22;4151;51.110;7.020;2023-05-02T13:52:23;21.10;99.90
8220;DHT22;4151;51.110;7.020;2023-05-02T13:54:49;22.70;97.40
8220;DHT22;4151;51.110;7.020;2023-05-02T13:57:15;24.50;93.30
8220;DHT22;4151;51.110;7.020;2023-05-02T13:59:40;24.90;90.20
8220;DHT22;4151;51.110;7.020;2023-05-02T14:02:06;25.10;89.20
8220;DHT22;4151;51.110;7.020;2023-05-02T14:04:32;25.40;85.00
8220;DHT22;4151;51.110;7.020;2023-05-02T14:06:57;25.80;81.60
8220;DHT22;4151;51.110;7.020;2023-05-02T14:09:23;24.90;82.90
8220;DHT22;4151;51.110;7.020;2023-05-02T14:11:48;24.00;80.10
8220;DHT22;4151;51.110;7.020;2023-05-02T14:14:14;22.80;84.20
8220;DHT22;4151;51.110;7.020;2023-05-02T14:16:40;21.40;88.40
8220;DHT22;4151;51.110;7.020;2023-05-02T14:19:05;21.20;89.90
8220;DHT22;4151;51.110;7.020;2023-05-02T14:21:31;21.50;90.60
8220;DHT22;4151;51.110;7.020;2023-05-02T14:23:57;20.60;86.80
8220;DHT22;4151;51.110;7.020;2023-05-02T14:26:22;20.10;91.30
8220;DHT22;4151;51.110;7.020;2023-05-02T14:28:48;20.20;91.00
8220;DHT22;4151;51.110;7.020;2023-05-02T14:31:14;20.60;91.90
8220;DHT22;4151;51.110;7.020;2023-05-02T14:33:39;21.00;89.30
8220;DHT22;4151;51.110;7.020;2023-05-02T14:36:05;20.80;90.80
8220;DHT22;4151;51.110;7.020;2023-05-02T14:38:31;21.50;90.90
8220;DHT22;4151;51.110;7.020;2023-05-02T14:40:56;22.40;88.80
8220;DHT22;4151;51.110;7.020;2023-05-02T14:43:22;22.40;87.90
8220;DHT22;4151;51.110;7.020;2023-05-02T14:45:47;20.90;85.40
8220;DHT22;4151;51.110;7.020;2023-05-02T14:48:13;20.20;89.70
8220;DHT22;4151;51.110;7.020;2023-05-02T14:50:41;19.50;91.60
8220;DHT22;4151;51.110;7.020;2023-05-02T14:53:06;19.20;92.50
8220;DHT22;4151;51.110;7.020;2023-05-02T14:55:36;20.70;92.30
8220;DHT22;4151;51.110;7.020;2023-05-02T14:58:03;22.40;86.90
8220;DHT22;4151;51.110;7.020;2023-05-02T15:00:29;22.30;85.70
8220;DHT22;4151;51.110;7.020;2023-05-02T15:02:54;23.80;83.70
8220;DHT22;4151;51.110;7.020;2023-05-02T15:05:20;23.20;81.90
8220;DHT22;4151;51.110;7.020;2023-05-02T15:07:46;22.00;84.20
8220;DHT22;4151;51.110;7.020;2023-05-02T15:10:11;20.60;88.20
8220;DHT22;4151;51.110;7.020;2023-05-02T15:12:37;20.40;89.60
8220;DHT22;4151;51.110;7.020;2023-05-02T15:15:03;20.50;90.10
8220;DHT22;4151;51.110;7.020;2023-05-02T15:17:28;20.90;89.50
8220;DHT22;4151;51.110;7.020;2023-05-02T15:19:54;22.70;83.90
8220;DHT22;4151;51.110;7.020;2023-05-02T15:22:19;22.60;79.40
8220;DHT22;4151;51.110;7.020;2023-05-02T15:24:46;21.90;83.20
8220;DHT22;4151;51.110;7.020;2023-05-02T15:27:12;23.30;83.10
8220;DHT22;4151;51.110;7.020;2023-05-02T15:29:37;25.30;79.40
8220;DHT22;4151;51.110;7.020;2023-05-02T15:32:03;26.20;76.30
8220;DHT22;4151;51.110;7.020;2023-05-02T15:34:28;26.00;73.60
8220;DHT22;4151;51.110;7.020;2023-05-02T15:36:54;25.90;73.30
8220;DHT22;4151;51.110;7.020;2023-05-02T15:39:21;26.80;71.50
8220;DHT22;4151;51.110;7.020;2023-05-02T15:41:49;28.30;70.20
8220;DHT22;4151;51.110;7.020;2023-05-02T15:44:14;28.40;69.20
8220;DHT22;4151;51.110;7.020;2023-05-02T15:46:40;28.30;67.90
8220;DHT22;4151;51.110;7.020;2023-05-02T15:49:11;28.60;65.30
8220;DHT22;4151;51.110;7.020;2023-05-02T15:51:36;27.50;64.90
8220;DHT22;4151;51.110;7.020;2023-05-02T15:54:02;27.80;65.00
8220;DHT22;4151;51.110;7.020;2023-05-02T15:56:27;28.60;64.50
8220;DHT22;4151;51.110;7.020;2023-05-02T15:58:53;28.00;62.70
8220;DHT22;4151;51.110;7.020;2023-05-02T16:01:18;27.50;61.70
8220;DHT22;4151;51.110;7.020;2023-05-02T16:03:45;26.50;63.40
8220;DHT22;4151;51.110;7.020;2023-05-02T16:06:11;26.10;64.80
8220;DHT22;4151;51.110;7.020;2023-05-02T16:08:37;26.10;63.70
8220;DHT22;4151;51.110;7.020;2023-05-02T16:11:02;25.60;64.30
8220;DHT22;4151;51.110;7.020;2023-05-02T16:13:28;25.20;66.20
8220;DHT22;4151;51.110;7.020;2023-05-02T16:15:53;25.60;67.00
8220;DHT22;4151;51.110;7.020;2023-05-02T16:18:20;24.10;66.40
8220;DHT22;4151;51.110;7.020;2023-05-02T16:20:47;22.90;67.40
8220;DHT22;4151;51.110;7.020;2023-05-02T16:23:14;22.80;69.30
8220;DHT22;4151;51.110;7.020;2023-05-02T16:25:40;24.40;69.50
8220;DHT22;4151;51.110;7.020;2023-05-02T16:28:05;25.30;66.30
8220;DHT22;4151;51.110;7.020;2023-05-02T16:30:34;26.00;67.30
8220;DHT22;4151;51.110;7.020;2023-05-02T16:33:00;26.00;67.00
8220;DHT22;4151;51.110;7.020;2023-05-02T16:35:26;26.10;67.40
8220;DHT22;4151;51.110;7.020;2023-05-02T16:37:51;26.80;66.50
8220;DHT22;4151;51.110;7.020;2023-05-02T16:40:17;27.50;64.60
8220;DHT22;4151;51.110;7.020;2023-05-02T16:42:43;28.30;63.00
8220;DHT22;4151;51.110;7.020;2023-05-02T16:45:08;28.90;62.60
8220;DHT22;4151;51.110;7.020;2023-05-02T16:47:34;29.70;62.20
8220;DHT22;4151;51.110;7.020;2023-05-02T16:50:00;28.30;62.40
8220;DHT22;4151;51.110;7.020;2023-05-02T16:52:26;28.80;61.90
8220;DHT22;4151;51.110;7.020;2023-05-02T16:54:52;27.60;61.10
8220;DHT22;4151;51.110;7.020;2023-05-02T16:57:18;26.80;63.70
8220;DHT22;4151;51.110;7.020;2023-05-02T16:59:46;26.60;63.10